Terminal Aerodrome Forecast
Issued by NWS Melbourne, FL

Current Version | Previous Version | Text Only | Print | Product List | Glossary On
Versions: 1 2 3 4 5 6 7 8 9 10 11 12 13 14 15
000
FTUS42 KMLB 221700
TAFDAB
TAF
KDAB 221720Z 2218/2318 04009KT P6SM FEW040 FEW250
     FM230000 01005KT P6SM SCT250
     FM230600 35004KT P6SM SCT250
     FM231400 35010KT P6SM FEW020 SCT250=

USA.gov is the U.S. government's official web portal to all federal, state and local government web resources and services.